createdAt,value
2023-03-23T00:00:46.501Z,0.1
2023-03-23T00:05:21.259Z,0.2
2023-03-23T00:10:22.083Z,0.2
2023-03-23T00:15:22.834Z,0.2
2023-03-23T00:20:22.734Z,0.2
2023-03-23T00:25:29.796Z,0.2
2023-03-23T00:30:28.908Z,0.1
2023-03-23T00:35:29.682Z,0.2
2023-03-23T00:40:27.745Z,0.2
2023-03-23T00:45:27.125Z,0.2
2023-03-23T00:50:38.943Z,0.2
2023-03-23T00:55:25.774Z,0.2
2023-03-23T00:59:43.584Z,0.2
2023-03-23T01:04:42.924Z,0.2
2023-03-23T01:14:40.098Z,0.2
2023-03-23T01:19:40.383Z,0.2
2023-03-23T01:29:40.072Z,0.2
2023-03-23T01:34:37.620Z,0.2
2023-03-23T01:39:37.077Z,0.2
2023-03-23T01:44:36.468Z,0.2
2023-03-23T01:49:36.611Z,0.2
2023-03-23T01:54:35.621Z,0.2
2023-03-23T02:04:20.913Z,0.2
2023-03-23T02:09:36.250Z,0.2
2023-03-23T02:14:23.179Z,0.2
2023-03-23T02:19:29.997Z,0.2
2023-03-23T02:24:29.869Z,0.2
2023-03-23T02:29:31.466Z,0.2
2023-03-23T02:34:27.343Z,0.2
2023-03-23T02:39:27.739Z,0.2
2023-03-23T02:44:29.282Z,0.2
2023-03-23T02:49:26.646Z,0.2
2023-03-23T02:54:26.181Z,0.2
2023-03-23T02:59:26.423Z,0.2
2023-03-23T03:04:14.108Z,0.2
2023-03-23T03:09:13.555Z,0.2
2023-03-23T03:14:12.615Z,0.2
2023-03-23T03:19:12.522Z,0.2
2023-03-23T03:24:12.008Z,0.2
2023-03-23T03:29:11.728Z,0.2
2023-03-23T03:34:11.633Z,0.2
2023-03-23T03:39:11.581Z,0.2
2023-03-23T03:44:12.997Z,0.2
2023-03-23T03:49:09.244Z,0.2
2023-03-23T03:54:09.968Z,0.2
2023-03-23T03:59:32.943Z,0.2
2023-03-23T04:01:30.860Z,0.1
2023-03-23T04:05:29.057Z,0.2
2023-03-23T04:10:43.989Z,0.2
2023-03-23T04:15:29.383Z,0.2
2023-03-23T04:20:42.907Z,0.2
2023-03-23T04:30:26.672Z,0.1
2023-03-23T04:35:45.058Z,0.2
2023-03-23T04:40:25.447Z,0.2
2023-03-23T04:45:23.250Z,0.2
2023-03-23T04:50:23.193Z,0.2
2023-03-23T04:55:22.503Z,0.2
2023-03-23T06:04:25.124Z,10.2
2023-03-23T06:09:21.727Z,9
2023-03-23T06:14:22.793Z,14.4
2023-03-23T06:19:20.590Z,26.4
2023-03-23T06:24:30.377Z,28.9
2023-03-23T06:29:20.641Z,23.1
2023-03-23T06:34:29.780Z,19.7
2023-03-23T06:39:31.721Z,18.9
2023-03-23T06:44:28.443Z,18.4
2023-03-23T06:49:27.755Z,15.2
2023-03-23T06:54:28.108Z,9.1
2023-03-23T06:59:26.041Z,10.3
2023-03-23T07:04:25.485Z,13.2
2023-03-23T07:29:12.406Z,62.8
2023-03-23T07:34:12.402Z,58
2023-03-23T07:39:11.812Z,77.4
2023-03-23T07:44:11.327Z,60.6
2023-03-23T07:49:10.847Z,59.9
2023-03-23T07:54:10.966Z,43.5
2023-03-23T07:59:11.075Z,63.7
2023-03-23T08:04:10.786Z,77.1
2023-03-23T08:14:08.414Z,110.4
2023-03-23T08:24:07.879Z,120.2
2023-03-23T08:29:07.732Z,168.2
2023-03-23T08:34:05.406Z,161.9
2023-03-23T08:39:05.727Z,224
2023-03-23T08:44:04.944Z,200.3
2023-03-23T08:49:05.076Z,220.8
2023-03-23T08:54:03.863Z,219
2023-03-23T09:00:52.219Z,108.5
2023-03-23T09:05:24.842Z,122.1
2023-03-23T09:10:22.561Z,164
2023-03-23T09:15:32.162Z,182.7
2023-03-23T09:20:21.871Z,242.3
2023-03-23T09:25:22.990Z,246.7
2023-03-23T09:30:21.186Z,160.5
2023-03-23T09:35:20.875Z,97.4
2023-03-23T09:40:28.064Z,90.4
2023-03-23T09:45:30.566Z,105.9
2023-03-23T09:50:29.545Z,54.8
2023-03-23T09:55:29.994Z,61.5
2023-03-23T10:04:25.445Z,55.7
2023-03-23T10:09:29.265Z,38.2
2023-03-23T10:19:22.787Z,35.2
2023-03-23T10:24:22.148Z,43.7
2023-03-23T10:29:21.552Z,63.9
2023-03-23T10:34:21.149Z,106.7
2023-03-23T10:39:22.568Z,88.6
2023-03-23T10:44:29.208Z,66.9
2023-03-23T10:49:29.039Z,72.8
2023-03-23T10:54:32.180Z,94.4
2023-03-23T10:59:27.266Z,125.3
2023-03-23T11:04:26.701Z,75.1
2023-03-23T11:09:27.162Z,81.2
2023-03-23T11:14:26.039Z,57.2
2023-03-23T11:19:26.489Z,61.3
2023-03-23T11:29:27.308Z,84.8
2023-03-23T11:39:24.747Z,94.2
2023-03-23T11:44:26.047Z,95.5
2023-03-23T11:49:23.335Z,93.6
2023-03-23T11:54:13.118Z,95.2
2023-03-23T11:59:12.290Z,99
2023-03-23T12:04:12.267Z,98.4
2023-03-23T12:09:10.150Z,97.5
2023-03-23T12:14:18.197Z,130.1
2023-03-23T12:19:09.998Z,121.6
2023-03-23T12:24:13.962Z,107.8
2023-03-23T12:29:07.651Z,108.6
2023-03-23T12:34:07.570Z,99.9
2023-03-23T12:39:07.146Z,86
2023-03-23T12:49:06.464Z,98.3
2023-03-23T12:54:05.067Z,105.7
2023-03-23T13:00:50.129Z,98.5
2023-03-23T13:05:25.820Z,88.1
2023-03-23T13:10:26.461Z,84.6
2023-03-23T13:15:25.632Z,118.2
2023-03-23T13:20:25.375Z,133
2023-03-23T13:25:26.569Z,151.9
2023-03-23T13:30:23.743Z,196.3
2023-03-23T13:35:23.121Z,263.4
2023-03-23T13:40:23.664Z,197.9
2023-03-23T13:45:21.670Z,203.1
2023-03-23T13:50:21.350Z,159.3
2023-03-23T13:55:21.611Z,182.4
2023-03-23T13:59:42.861Z,171.4
2023-03-23T14:04:43.570Z,188.5
2023-03-23T14:09:40.032Z,176.2
2023-03-23T14:14:40.135Z,146.2
2023-03-23T14:19:39.689Z,122.5
2023-03-23T14:24:39.492Z,135.9
2023-03-23T14:29:37.090Z,155.4
2023-03-23T14:34:37.034Z,134.3
2023-03-23T14:39:36.441Z,99.7
2023-03-23T14:44:35.973Z,68.2
2023-03-23T14:49:35.428Z,64.3
2023-03-23T14:54:35.202Z,48.7
2023-03-23T14:59:21.353Z,51.8
2023-03-23T15:04:22.521Z,35.6
2023-03-23T15:09:22.336Z,34.5
2023-03-23T15:14:29.841Z,37.2
2023-03-23T15:19:28.809Z,39.2
2023-03-23T15:24:35.768Z,34
2023-03-23T15:29:37.062Z,32.1
2023-03-23T15:34:26.829Z,31.9
2023-03-23T15:39:28.123Z,34.9
2023-03-23T15:44:25.160Z,37.1
2023-03-23T15:49:24.915Z,29.4
2023-03-23T15:54:30.138Z,34.9
2023-03-23T15:59:15.043Z,31.4
2023-03-23T16:01:02.100Z,32.9
2023-03-23T16:05:33.292Z,27.9
2023-03-23T16:10:33.229Z,20.3
2023-03-23T16:15:33.057Z,25.8
2023-03-23T16:20:32.548Z,19.9
2023-03-23T16:25:32.340Z,26.2
2023-03-23T16:35:33.054Z,20.4
2023-03-23T16:40:29.219Z,39.7
2023-03-23T16:45:29.511Z,27.6
2023-03-23T16:50:28.347Z,13.6
2023-03-23T16:55:28.591Z,26.2
2023-03-23T19:04:28.831Z,0.2
2023-03-23T19:09:28.947Z,0.2
2023-03-23T19:14:34.821Z,0.2
2023-03-23T19:19:27.161Z,0.2
2023-03-23T19:24:26.192Z,0.2
2023-03-23T19:29:57.169Z,0.2
2023-03-23T19:34:26.186Z,0.2
2023-03-23T19:39:25.797Z,0.2
2023-03-23T19:44:26.299Z,0.2
2023-03-23T19:49:26.693Z,0.2
2023-03-23T19:54:13.717Z,0.2
2023-03-23T19:59:13.858Z,0.2
2023-03-23T20:04:13.531Z,0.2
2023-03-23T20:09:17.692Z,0.2
2023-03-23T20:14:11.762Z,0.2
2023-03-23T20:24:10.307Z,0.2
2023-03-23T20:29:09.772Z,0.2
2023-03-23T20:34:21.491Z,0.2
2023-03-23T20:39:08.497Z,0.2
2023-03-23T20:44:08.110Z,0.2
2023-03-23T20:49:09.046Z,0.2
2023-03-23T20:54:05.517Z,0.2
2023-03-23T20:59:05.596Z,0.2
2023-03-23T21:00:51.980Z,0.1
2023-03-23T21:05:27.624Z,0.2
2023-03-23T21:10:25.004Z,0.2
2023-03-23T21:15:25.049Z,0.2
2023-03-23T21:20:24.550Z,0.2
2023-03-23T21:25:34.107Z,0.2
2023-03-23T21:30:23.744Z,0.1
2023-03-23T21:35:23.037Z,0.2
2023-03-23T21:40:22.609Z,0.2
2023-03-23T21:45:21.799Z,0.2
2023-03-23T21:50:23.045Z,0.2
2023-03-23T21:55:30.493Z,0.2
2023-03-23T21:59:46.040Z,0.2
2023-03-23T22:04:45.819Z,0.2
2023-03-23T22:14:43.693Z,0.2
2023-03-23T22:19:42.653Z,0.2
2023-03-23T22:24:42.385Z,0.2
2023-03-23T22:29:42.018Z,0.2
2023-03-23T22:34:41.353Z,0.2
2023-03-23T22:39:41.667Z,0.2
2023-03-23T22:44:41.449Z,0.2
2023-03-23T22:54:38.596Z,0.2
2023-03-23T23:04:25.320Z,0.2
2023-03-23T23:09:24.245Z,0.2
2023-03-23T23:14:24.583Z,0.2
2023-03-23T23:19:23.668Z,0.2
2023-03-23T23:24:23.666Z,0.2
2023-03-23T23:29:21.961Z,0.2
2023-03-23T23:34:21.635Z,0.2
2023-03-23T23:39:21.306Z,0.2
2023-03-23T23:44:20.437Z,0.2
2023-03-23T23:49:30.677Z,0.2
2023-03-23T23:54:31.216Z,0.2
2023-03-23T23:59:30.658Z,0.2
